createdAt,value
2022-11-25T00:00:21.106Z,89.000000
2022-11-25T00:05:21.973Z,89.000000
2022-11-25T00:10:20.959Z,88.333333
2022-11-25T00:15:20.988Z,88.000000
2022-11-25T00:20:21.035Z,88.000000
2022-11-25T00:25:22.643Z,88.000000
2022-11-25T00:30:21.081Z,88.000000
2022-11-25T00:35:21.674Z,88.000000
2022-11-25T00:40:22.154Z,88.000000
2022-11-25T00:45:23.164Z,88.000000
2022-11-25T00:50:21.600Z,88.545455
2022-11-25T00:55:21.599Z,88.909091
2022-11-25T01:00:21.484Z,89.000000
2022-11-25T01:05:23.402Z,89.000000
2022-11-25T01:10:21.488Z,89.000000
2022-11-25T01:15:21.551Z,89.000000
2022-11-25T01:20:20.798Z,89.000000
2022-11-25T01:25:23.996Z,89.000000
2022-11-25T01:30:21.598Z,89.888889
2022-11-25T01:35:22.012Z,90.000000
2022-11-25T01:40:21.992Z,90.000000
2022-11-25T01:45:27.968Z,90.000000
2022-11-25T01:50:21.984Z,89.583333
2022-11-25T01:55:22.024Z,90.000000
2022-11-25T02:00:22.045Z,90.000000
2022-11-25T02:05:27.401Z,90.000000
2022-11-25T02:10:22.051Z,90.000000
2022-11-25T02:15:18.968Z,90.000000
2022-11-25T02:20:22.207Z,90.000000
2022-11-25T02:25:22.073Z,90.181818
2022-11-25T02:30:22.058Z,90.181818
2022-11-25T02:35:22.419Z,90.727273
2022-11-25T02:40:22.693Z,91.000000
2022-11-25T02:45:22.495Z,91.000000
2022-11-25T02:50:22.490Z,91.000000
2022-11-25T02:55:22.455Z,91.000000
2022-11-25T03:00:23.214Z,91.000000
2022-11-25T03:05:22.540Z,91.000000
2022-11-25T03:10:22.419Z,91.000000
2022-11-25T03:15:22.453Z,91.000000
2022-11-25T03:20:23.986Z,91.000000
2022-11-25T03:25:22.469Z,92.000000
2022-11-25T03:30:23.050Z,92.000000
2022-11-25T03:35:22.883Z,92.000000
2022-11-25T03:40:24.462Z,92.000000
2022-11-25T03:45:22.997Z,92.000000
2022-11-25T03:50:22.999Z,92.000000
2022-11-25T03:55:22.992Z,92.000000
2022-11-25T04:00:24.937Z,92.000000
2022-11-25T04:05:22.923Z,92.000000
2022-11-25T04:10:19.145Z,92.000000
2022-11-25T04:15:23.005Z,92.000000
2022-11-25T04:20:25.516Z,92.000000
2022-11-25T04:25:29.249Z,92.000000
2022-11-25T04:30:19.728Z,92.555556
2022-11-25T04:35:23.479Z,93.000000
2022-11-25T04:40:25.930Z,93.000000
2022-11-25T04:45:24.182Z,93.000000
2022-11-25T04:50:20.089Z,93.000000
2022-11-25T04:55:23.364Z,93.000000
2022-11-25T05:00:26.360Z,93.200000
2022-11-25T05:05:23.471Z,94.000000
2022-11-25T05:10:23.460Z,94.000000
2022-11-25T05:15:24.257Z,94.000000
2022-11-25T05:20:23.476Z,94.000000
2022-11-25T05:25:23.386Z,94.000000
2022-11-25T05:30:23.471Z,94.000000
2022-11-25T05:35:24.236Z,94.000000
2022-11-25T05:40:23.839Z,94.000000
2022-11-25T05:45:23.871Z,94.000000
2022-11-25T05:50:23.904Z,94.000000
2022-11-25T05:55:24.547Z,94.000000
2022-11-25T06:00:26.773Z,94.000000
2022-11-25T06:05:23.935Z,94.000000
2022-11-25T06:10:24.023Z,94.000000
2022-11-25T06:15:25.040Z,93.250000
2022-11-25T06:20:23.899Z,93.000000
2022-11-25T06:25:19.734Z,93.000000
2022-11-25T06:30:23.971Z,93.000000
2022-11-25T06:35:25.736Z,93.000000
2022-11-25T06:40:24.332Z,93.000000
2022-11-25T06:45:19.866Z,93.000000
2022-11-25T06:50:24.436Z,93.000000
2022-11-25T06:55:26.273Z,92.000000
2022-11-25T07:00:24.404Z,92.000000
2022-11-25T07:05:21.303Z,91.500000
2022-11-25T07:10:24.365Z,91.000000
2022-11-25T07:15:26.608Z,90.500000
2022-11-25T07:20:24.385Z,90.666667
2022-11-25T07:25:20.996Z,90.000000
2022-11-25T07:31:35.278Z,90.000000
2022-11-25T07:35:27.170Z,89.250000
2022-11-25T07:40:24.842Z,89.000000
2022-11-25T07:45:21.310Z,88.333333
2022-11-25T07:50:24.814Z,88.909091
2022-11-25T07:55:27.637Z,88.000000
2022-11-25T08:00:30.766Z,88.000000
2022-11-25T08:05:21.759Z,88.000000
2022-11-25T08:10:36.964Z,88.000000
2022-11-25T08:15:28.255Z,87.166667
2022-11-25T08:20:19.175Z,87.090909
2022-11-25T08:25:24.839Z,87.363636
2022-11-25T08:30:25.654Z,87.222222
2022-11-25T08:35:25.278Z,87.666667
2022-11-25T08:40:19.775Z,87.727273
2022-11-25T08:45:25.326Z,87.000000
2022-11-25T08:50:26.266Z,86.400000
2022-11-25T08:55:25.281Z,86.272727
2022-11-25T09:00:20.232Z,86.600000
2022-11-25T09:05:25.397Z,86.166667
2022-11-25T09:10:26.423Z,86.400000
2022-11-25T09:15:25.215Z,86.083333
2022-11-25T09:20:20.771Z,85.900000
2022-11-25T09:25:25.338Z,85.272727
2022-11-25T09:30:27.016Z,85.000000
2022-11-25T09:35:25.780Z,85.333333
2022-11-25T09:40:21.286Z,85.272727
2022-11-25T09:45:25.803Z,85.200000
2022-11-25T09:50:27.361Z,85.000000
2022-11-25T09:55:25.705Z,84.538462
2022-11-25T10:00:21.517Z,83.916667
2022-11-25T10:05:25.814Z,83.545455
2022-11-25T10:10:27.794Z,83.500000
2022-11-25T10:15:18.862Z,84.000000
2022-11-25T10:20:21.984Z,84.000000
2022-11-25T10:25:25.819Z,84.454545
2022-11-25T10:30:28.511Z,84.111111
2022-11-25T10:35:22.164Z,84.000000
2022-11-25T10:40:22.474Z,84.083333
2022-11-25T10:45:26.242Z,83.818182
2022-11-25T10:50:28.922Z,84.666667
2022-11-25T10:55:19.848Z,84.461538
2022-11-25T11:00:22.941Z,83.900000
2022-11-25T11:05:26.331Z,84.000000
2022-11-25T11:10:29.224Z,83.777778
2022-11-25T11:15:20.151Z,83.363636
2022-11-25T11:20:26.164Z,83.666667
2022-11-25T11:25:26.715Z,83.800000
2022-11-25T11:30:26.283Z,83.727273
2022-11-25T11:35:20.918Z,84.083333
2022-11-25T11:40:26.641Z,84.000000
2022-11-25T11:45:27.220Z,83.400000
2022-11-25T11:50:26.697Z,84.250000
2022-11-25T11:55:21.339Z,84.500000
2022-11-25T12:00:26.648Z,85.000000
2022-11-25T12:05:27.702Z,84.769231
2022-11-25T12:10:26.669Z,85.083333
2022-11-25T12:15:21.697Z,85.000000
2022-11-25T12:20:26.727Z,85.818182
2022-11-25T12:25:28.227Z,86.000000
2022-11-25T12:30:19.380Z,86.000000
2022-11-25T12:35:22.454Z,86.272727
2022-11-25T12:40:27.189Z,87.000000
2022-11-25T12:45:28.705Z,86.250000
2022-11-25T12:50:19.510Z,85.700000
2022-11-25T12:55:22.736Z,85.000000
2022-11-25T13:00:43.221Z,85.111111
2022-11-25T13:05:44.960Z,85.000000
2022-11-25T13:10:20.714Z,85.750000
2022-11-25T13:15:23.807Z,86.000000
2022-11-25T13:20:27.231Z,86.333333
2022-11-25T13:25:29.949Z,85.900000
2022-11-25T13:30:21.344Z,86.000000
2022-11-25T13:35:24.098Z,86.000000
2022-11-25T13:40:27.574Z,86.400000
2022-11-25T13:45:30.407Z,87.000000
2022-11-25T13:50:22.454Z,87.500000
2022-11-25T13:55:24.475Z,88.000000
2022-11-25T14:00:28.313Z,88.000000
2022-11-25T14:05:27.716Z,88.000000
2022-11-25T14:10:21.711Z,88.000000
2022-11-25T14:15:27.564Z,88.800000
2022-11-25T14:20:28.258Z,89.000000
2022-11-25T14:25:19.328Z,89.000000
2022-11-25T14:30:22.390Z,89.000000
2022-11-25T14:35:28.743Z,89.700000
2022-11-25T14:40:28.700Z,90.000000
2022-11-25T14:45:19.679Z,90.000000
2022-11-25T14:50:38.610Z,90.000000
2022-11-25T14:55:25.975Z,90.000000
2022-11-25T15:00:29.131Z,90.000000
2022-11-25T15:05:20.105Z,90.000000
2022-11-25T15:10:23.285Z,90.818182
2022-11-25T15:15:28.109Z,91.000000
2022-11-25T15:20:29.886Z,91.000000
2022-11-25T15:25:21.003Z,91.000000
2022-11-25T15:30:24.065Z,91.000000
2022-11-25T15:35:28.616Z,91.000000
2022-11-25T15:40:30.875Z,91.000000
2022-11-25T15:45:21.379Z,91.000000
2022-11-25T15:50:24.548Z,91.000000
2022-11-25T15:55:28.571Z,91.000000
2022-11-25T16:00:30.874Z,92.000000
2022-11-25T16:05:21.816Z,92.000000
2022-11-25T16:10:24.946Z,92.000000
2022-11-25T16:15:28.758Z,92.000000
2022-11-25T16:20:19.180Z,92.000000
2022-11-25T16:25:22.640Z,92.000000
2022-11-25T16:30:28.492Z,92.000000
2022-11-25T16:35:29.042Z,92.000000
2022-11-25T16:40:19.922Z,92.000000
2022-11-25T16:45:23.178Z,92.000000
2022-11-25T16:50:29.026Z,92.000000
2022-11-25T16:55:29.330Z,92.000000
2022-11-25T17:00:20.338Z,92.000000
2022-11-25T17:05:23.443Z,92.000000
2022-11-25T17:10:28.984Z,92.000000
2022-11-25T17:15:30.298Z,92.666667
2022-11-25T17:20:21.122Z,93.000000
2022-11-25T17:25:24.276Z,93.000000
2022-11-25T17:30:29.036Z,93.000000
2022-11-25T17:35:30.640Z,93.000000
2022-11-25T17:40:21.546Z,93.000000
2022-11-25T17:45:24.724Z,93.000000
2022-11-25T17:50:29.577Z,93.000000
2022-11-25T17:55:18.877Z,93.000000
2022-11-25T18:00:22.051Z,93.000000
2022-11-25T18:05:25.116Z,93.000000
2022-11-25T18:10:29.499Z,93.000000
2022-11-25T18:15:19.606Z,93.000000
2022-11-25T18:20:23.255Z,93.000000
2022-11-25T18:25:25.844Z,93.000000
2022-11-25T18:30:29.574Z,93.000000
2022-11-25T18:35:19.986Z,92.363636
2022-11-25T18:40:23.060Z,92.000000
2022-11-25T18:45:26.319Z,92.000000
2022-11-25T18:50:29.920Z,91.555556
2022-11-25T18:55:20.364Z,90.777778
2022-11-25T19:00:32.379Z,89.538462
2022-11-25T19:05:26.641Z,88.000000
2022-11-25T19:10:29.971Z,86.454545
2022-11-25T19:15:20.980Z,84.888889
2022-11-25T19:20:24.028Z,84.272727
2022-11-25T19:25:29.938Z,83.444444
2022-11-25T19:30:30.502Z,83.250000
2022-11-25T19:35:21.467Z,83.583333
2022-11-25T19:40:24.658Z,83.400000
2022-11-25T19:45:28.628Z,83.181818
2022-11-25T19:50:30.934Z,84.000000
2022-11-25T19:55:21.839Z,83.700000
2022-11-25T20:00:25.107Z,83.363636
2022-11-25T20:05:30.462Z,83.700000
2022-11-25T20:10:19.243Z,83.777778
2022-11-25T20:15:22.521Z,83.800000
2022-11-25T20:20:25.562Z,83.000000
2022-11-25T20:25:31.234Z,83.000000
2022-11-25T20:30:19.774Z,83.000000
2022-11-25T20:35:18.833Z,83.000000
2022-11-25T20:40:18.925Z,82.875000
2022-11-25T20:45:30.942Z,82.181818
2022-11-25T20:50:20.025Z,82.400000
2022-11-25T20:55:18.966Z,82.000000
2022-11-25T21:00:19.045Z,81.583333
2022-11-25T21:05:19.025Z,81.500000
2022-11-25T21:10:20.599Z,81.700000
2022-11-25T21:15:18.864Z,81.333333
2022-11-25T21:20:18.893Z,81.000000
2022-11-25T21:25:18.944Z,80.625000
2022-11-25T21:30:21.097Z,80.545455
2022-11-25T21:35:19.330Z,80.500000
2022-11-25T21:40:19.398Z,80.692308
2022-11-25T21:45:31.392Z,80.800000
2022-11-25T21:50:21.568Z,80.000000
2022-11-25T21:55:19.341Z,80.000000
2022-11-25T22:00:19.330Z,80.000000
2022-11-25T22:05:19.364Z,79.916667
2022-11-25T22:10:22.119Z,79.000000
2022-11-25T22:15:19.364Z,79.181818
2022-11-25T22:20:19.448Z,79.666667
2022-11-25T22:25:19.679Z,79.545455
2022-11-25T22:30:19.428Z,79.272727
2022-11-25T22:35:19.952Z,78.727273
2022-11-25T22:40:19.858Z,77.916667
2022-11-25T22:45:20.132Z,78.400000
2022-11-25T22:50:19.796Z,79.090909
2022-11-25T22:55:19.807Z,79.100000
2022-11-25T23:00:31.926Z,79.363636
2022-11-25T23:05:20.497Z,79.250000
2022-11-25T23:10:19.874Z,78.090909
2022-11-25T23:15:19.863Z,78.000000
2022-11-25T23:20:19.794Z,77.100000
2022-11-25T23:25:21.181Z,76.800000
2022-11-25T23:30:19.831Z,77.454545
2022-11-25T23:35:20.207Z,77.000000
2022-11-25T23:40:20.240Z,77.250000
2022-11-25T23:45:21.732Z,77.700000
2022-11-25T23:50:20.265Z,77.384615
2022-11-25T23:55:20.311Z,77.916667
